Main page
METAR-TAF:

METAR-TAF

Airports :

Jabalpur Airport

Jabalpur, India

latitude: 23-10-54N, longitude: 80-03-31E, elevation: 495 m

Current weather observation

The report was made 10 hours and 17 minutes ago, at 15:00 UTC
Wind 4 kt from the East/Northeast
Temperature 32°C
Humidity 18%
Pressure 1009 hPa
Visibility: 5000 m
haze

METAR: VAJB 231500Z 07004KT 5000 HZ NSC 32/05 Q1009

Time: 06:47 (01:17 UTC)

Forecast

The report was made 2 hours and 17 minutes ago, at 23:00 UTC
Forecast valid from 24 at 00 UTC to 24 at 09 UTC
Wind 5 kt from the West/Northwest
Visibility: 3000 m
Few clouds at a height of 2000 ft
haze
Becoming
from 24 at 04 UTC to 24 at 06 UTC
Wind 5 kt from the West
Visibility: 4000 m
haze
Becoming
from 24 at 06 UTC to 24 at 08 UTC
Wind 6 kt from the West
Visibility: 5000 m
haze

TAF: VAJB 232300Z 2400/2409 29005KT 3000 HZ FEW020 BECMG 2404/2406 26005KT 4000 HZ NSC BECMG 2406/2408 27006KT 5000 HZ

Weather observations and forecasts of more than 4000 airports (METAR and TAF reports).

The available stations are represented by yellow and red dots on the map.

Hover mouse over dot to see the name of the station.

Then click to see weather observations and forecasts.

To change the map : click on the green buttons with a black cross to zoom in, on the green button with a dash to zoom out, or on the green arrows for adjacent maps.


METAR-TAF: